Bay Bridge — 3FCS5 — position and weather

sailwx.info

Track history (hours):
 
Tides and Currents Weather Stations Pressure Air Temp Water Temp Dewpoint Dewpoint Depression Visibility Wind Speed Wind Dir Waves Ship Positions

Bay Bridge

Last reported at 2014-Nov-27 01:33 UTC. Time now 2014-Nov-28 20:30 UTC.
Position N 38°52' W 125°12'.

Length 267 m; draft 11.4 m.

Type: Ship (hazmat cat A). MMSI: 354120000.

Date/timePositionNaut miles runAvg speedWind from/ knotsBaromVisibWave heightAir tempDewpointWater temp
2014-Nov-27 01:33N 38°52' W 125°12'1212.1
2014-Nov-27 00:33N 38°46' W 124°59'1212.3
2014-Nov-26 23:33N 38°40' W 124°45'1212.1
2014-Nov-26 22:33N 38°34' W 124°31'1212.4
2014-Nov-26 21:33N 38°28' W 124°18'1212.3
2014-Nov-26 20:33N 38°23' W 124°04'1212.5
2014-Nov-26 19:33N 38°17' W 123°50'1616.4
2014-Nov-26 18:33N 38°10' W 123°31'1716.8
2014-Nov-26 17:33N 38°02' W 123°12'1817.8
2014-Nov-26 16:34N 37°52' W 122°54'1413.9
2014-Nov-26 15:33N 37°46' W 122°37'1413.8
2014-Nov-26 14:33N 37°49' W 122°20'1 0.8
2014-Nov-26 13:31N 37°49' W 122°19'0 0.0
2014-Nov-26 12:31N 37°49' W 122°19'0 0.0
2014-Nov-26 11:25N 37°49' W 122°19'0 0.0
2014-Nov-26 10:31N 37°49' W 122°19'0 0.0
2014-Nov-26 09:31N 37°49' W 122°19'0 0.0
2014-Nov-26 08:31N 37°49' W 122°19'0 0.0
2014-Nov-26 07:31N 37°49' W 122°19'0 0.0
2014-Nov-26 06:31N 37°49' W 122°19'0 0.0
2014-Nov-26 05:31N 37°49' W 122°19'0 0.0
2014-Nov-26 04:31N 37°49' W 122°19'0 0.0
2014-Nov-26 03:31N 37°49' W 122°19'0 0.0
2014-Nov-26 02:31N 37°49' W 122°19'0 0.0
2014-Nov-26 01:31N 37°49' W 122°19'0 0.0
2014-Nov-26 00:31N 37°49' W 122°19'0 0.0
2014-Nov-25 23:28N 37°49' W 122°19'0 0.0
2014-Nov-25 22:31N 37°49' W 122°19'0 0.0
2014-Nov-25 21:31N 37°49' W 122°19'0 0.0
2014-Nov-25 20:31N 37°49' W 122°19'0 0.0
2014-Nov-25 19:31N 37°49' W 122°19'0 0.0
2014-Nov-25 18:31N 37°49' W 122°19'0 0.0
2014-Nov-25 17:31N 37°49' W 122°19'0 0.0
2014-Nov-25 16:33N 37°49' W 122°19'0 0.0
2014-Nov-25 15:30N 37°49' W 122°19'0 0.0
2014-Nov-25 14:31N 37°49' W 122°19'0 0.0
2014-Nov-25 13:31N 37°49' W 122°19'0 0.0
2014-Nov-25 12:31N 37°49' W 122°19'0 0.0
2014-Nov-25 11:31N 37°49' W 122°19'0 0.0
2014-Nov-25 10:31N 37°49' W 122°19'0 0.0
2014-Nov-25 09:31N 37°49' W 122°19'0 0.0
2014-Nov-25 08:33N 37°49' W 122°19'0 0.0
2014-Nov-25 07:31N 37°49' W 122°19'0 0.0
2014-Nov-25 06:33N 37°49' W 122°19'0 0.0
2014-Nov-25 05:33N 37°49' W 122°19'0 0.0
2014-Nov-25 04:30N 37°49' W 122°19'0 0.0
2014-Nov-25 03:31N 37°49' W 122°19'0 0.5
2014-Nov-25 02:33N 37°49' W 122°20'8 8.0
2014-Nov-25 01:33N 37°49' W 122°30'1110.8
2014-Nov-25 00:34N 37°43' W 122°42'1110.8
2014-Nov-24 23:33N 37°37' W 122°53'1414.0
2014-Nov-24 22:33N 37°25' W 123°02'1514.7
2014-Nov-24 21:34N 37°11' W 122°58'2020.1
2014-Nov-24 20:34N 36°52' W 122°50'2221.7
2014-Nov-24 19:34N 36°32' W 122°39'2222.1
2014-Nov-24 18:33N 36°12' W 122°27'2221.7
2014-Nov-24 17:33N 35°54' W 122°12'2221.9
2014-Nov-24 16:33N 35°36' W 121°56'2222.3
2014-Nov-24 15:33N 35°18' W 121°40'2222.2
2014-Nov-24 14:33N 35°00' W 121°24'2222.4
2014-Nov-24 13:33N 34°42' W 121°08'3717.8
2014-Nov-24 11:29N 34°21' W 120°31'1617.4
2014-Nov-24 10:33N 34°17' W 120°12'1817.5
2014-Nov-24 09:33N 34°12' W 119°51'1818.2
2014-Nov-24 08:34N 34°08' W 119°30'1818.0
2014-Nov-24 07:33N 34°02' W 119°10'1313.2
2014-Nov-24 06:33N 33°55' W 118°56'2311.7
2014-Nov-24 04:33N 33°44' W 118°32'1111.4
2014-Nov-24 03:33N 33°38' W 118°20'9 8.6
2014-Nov-24 02:33N 33°43' W 118°11'2 1.6
2014-Nov-24 01:32N 33°45' W 118°12'0 0.0
2014-Nov-24 00:32N 33°45' W 118°12'0 0.0
2014-Nov-23 23:32N 33°45' W 118°12'0 0.0
2014-Nov-23 22:32N 33°45' W 118°12'0 0.0
2014-Nov-23 21:32N 33°45' W 118°12'0 0.1
2014-Nov-23 20:32N 33°45' W 118°12'0 0.0
2014-Nov-23 19:32N 33°45' W 118°12'0 0.0
2014-Nov-23 18:32N 33°45' W 118°12'0 0.0
2014-Nov-23 17:32N 33°45' W 118°12'0 0.0
2014-Nov-23 16:32N 33°45' W 118°12'0 0.0
2014-Nov-23 15:20N 33°45' W 118°12'0 0.0
2014-Nov-23 14:17N 33°45' W 118°12'0 0.0
2014-Nov-23 13:05N 33°45' W 118°12'0 0.0
2014-Nov-23 12:29N 33°45' W 118°12'0 0.0
2014-Nov-23 11:32N 33°45' W 118°12'0 0.0
2014-Nov-23 10:29N 33°45' W 118°12'0 0.1
2014-Nov-23 09:32N 33°45' W 118°12'0 0.0
2014-Nov-23 08:32N 33°45' W 118°12'0 0.1
2014-Nov-23 07:32N 33°45' W 118°12'0 0.0
2014-Nov-23 06:32N 33°45' W 118°12'0 0.0
2014-Nov-23 05:23N 33°45' W 118°12'0 0.1
2014-Nov-23 04:32N 33°45' W 118°12'0 0.1
2014-Nov-23 03:32N 33°45' W 118°12'0 0.1
2014-Nov-23 02:32N 33°45' W 118°12'0 0.0
2014-Nov-23 01:32N 33°45' W 118°12'0 0.1
2014-Nov-23 00:32N 33°45' W 118°12'0 0.1
2014-Nov-22 23:32N 33°45' W 118°12'0 0.0
2014-Nov-22 22:32N 33°45' W 118°12'0 0.0
2014-Nov-22 21:32N 33°45' W 118°12'0 0.0
2014-Nov-22 20:31N 33°45' W 118°12'0 0.0
2014-Nov-22 19:32N 33°45' W 118°12'0 0.0
2014-Nov-22 18:32N 33°45' W 118°12'0 0.0
2014-Nov-22 17:29N 33°45' W 118°12'0 0.1
2014-Nov-22 16:32N 33°45' W 118°12'0 0.0
2014-Nov-22 15:31N 33°45' W 118°12'0 0.0
2014-Nov-22 14:31N 33°45' W 118°12'0 0.0
2014-Nov-22 13:20N 33°45' W 118°12'0 0.0
2014-Nov-22 12:25N 33°45' W 118°12'0 0.0
2014-Nov-22 11:26N 33°45' W 118°12'0 0.1
2014-Nov-22 10:31N 33°45' W 118°12'0 0.0
2014-Nov-22 08:31N 33°45' W 118°12'0 0.0
2014-Nov-22 07:31N 33°45' W 118°12'0 0.0
2014-Nov-22 06:31N 33°45' W 118°12'0 0.0
2014-Nov-22 05:31N 33°45' W 118°12'0 0.1
2014-Nov-22 04:31N 33°45' W 118°12'0 0.1
2014-Nov-22 03:31N 33°45' W 118°12'0 0.0
2014-Nov-22 02:31N 33°45' W 118°12'0 0.0
2014-Nov-22 01:31N 33°45' W 118°12'0 0.0
2014-Nov-22 00:32N 33°45' W 118°12'0 0.1
2014-Nov-21 23:31N 33°45' W 118°12'0 0.1
2014-Nov-21 22:31N 33°45' W 118°12'0 0.0
2014-Nov-21 21:19N 33°45' W 118°12'0 0.0
2014-Nov-21 20:31N 33°45' W 118°12'0 0.0
2014-Nov-21 19:31N 33°45' W 118°12'0 0.0
2014-Nov-21 18:31N 33°45' W 118°12'0 0.0
2014-Nov-21 17:31N 33°45' W 118°12'0 0.0
2014-Nov-21 16:31N 33°45' W 118°12'0 0.0
2014-Nov-21 15:25N 33°45' W 118°12'0 0.0
2014-Nov-21 14:31N 33°45' W 118°12'0 0.1
2014-Nov-21 13:31N 33°45' W 118°12'0 0.1
2014-Nov-21 12:31N 33°45' W 118°12'0 0.0
2014-Nov-21 11:28N 33°45' W 118°12'0 0.0
2014-Nov-21 10:31N 33°45' W 118°12'0 0.0
2014-Nov-21 09:31N 33°45' W 118°12'0 0.0
2014-Nov-21 08:28N 33°45' W 118°12'0 0.0
2014-Nov-21 07:19N 33°45' W 118°12'0 0.0
2014-Nov-21 06:31N 33°45' W 118°12'0 0.1
2014-Nov-21 05:31N 33°45' W 118°12'0 0.0
2014-Nov-21 04:28N 33°45' W 118°12'0 0.1
2014-Nov-21 03:31N 33°45' W 118°12'0 0.0
2014-Nov-21 02:31N 33°45' W 118°12'0 0.0
2014-Nov-21 01:22N 33°45' W 118°12'0 0.0
2014-Nov-21 00:22N 33°45' W 118°12'0 0.0
2014-Nov-20 23:31N 33°45' W 118°12'0 0.0
2014-Nov-20 22:31N 33°45' W 118°12'0 0.1
2014-Nov-20 21:31N 33°45' W 118°12'0 0.0
2014-Nov-20 20:31N 33°45' W 118°12'0 0.0
2014-Nov-20 19:31N 33°45' W 118°12'0 0.0
2014-Nov-20 18:31N 33°45' W 118°12'0 0.0
2014-Nov-20 17:31N 33°45' W 118°12'0 0.0
2014-Nov-20 16:31N 33°45' W 118°12'0 0.0
2014-Nov-20 15:31N 33°45' W 118°12'0 0.0
2014-Nov-20 14:28N 33°45' W 118°12'0 0.0
2014-Nov-20 13:28N 33°45' W 118°12'2 2.3
2014-Nov-20 12:33N 33°43' W 118°11'9 7.7
2014-Nov-20 11:26N 33°36' W 118°18'1010.6
2014-Nov-20 10:31N 33°40' W 118°29'1211.6
2014-Nov-20 09:30N 33°46' W 118°41'1111.7
2014-Nov-20 08:33N 33°51' W 118°52'1211.7
2014-Nov-20 07:33N 33°57' W 119°05'3215.7
2014-Nov-20 05:33N 34°08' W 119°40'1616.6
2014-Nov-20 04:33N 34°12' W 119°59'1716.5
2014-Nov-20 03:33N 34°17' W 120°19'  
Track history (hours):
 
Tides and Currents Weather Stations Pressure Air Temp Water Temp Dewpoint Dewpoint Depression Visibility Wind Speed Wind Dir Waves Ship Positions

Bay Bridge

Last reported at 2014-Nov-27 01:33 UTC. Time now 2014-Nov-28 20:30 UTC.
Position N 38°52' W 125°12'.

Length 267 m; draft 11.4 m.

Type: Ship (hazmat cat A). MMSI: 354120000.

Date/timePositionNaut miles runAvg speedWind from/ knotsBaromVisibWave heightAir tempDewpointWater temp
2014-Nov-27 01:33N 38°52' W 125°12'1212.1
2014-Nov-27 00:33N 38°46' W 124°59'1212.3
2014-Nov-26 23:33N 38°40' W 124°45'1212.1
2014-Nov-26 22:33N 38°34' W 124°31'1212.4
2014-Nov-26 21:33N 38°28' W 124°18'1212.3
2014-Nov-26 20:33N 38°23' W 124°04'1212.5
2014-Nov-26 19:33N 38°17' W 123°50'1616.4
2014-Nov-26 18:33N 38°10' W 123°31'1716.8
2014-Nov-26 17:33N 38°02' W 123°12'1817.8
2014-Nov-26 16:34N 37°52' W 122°54'1413.9
2014-Nov-26 15:33N 37°46' W 122°37'1413.8
2014-Nov-26 14:33N 37°49' W 122°20'1 0.8
2014-Nov-26 13:31N 37°49' W 122°19'0 0.0
2014-Nov-26 12:31N 37°49' W 122°19'0 0.0
2014-Nov-26 11:25N 37°49' W 122°19'0 0.0
2014-Nov-26 10:31N 37°49' W 122°19'0 0.0
2014-Nov-26 09:31N 37°49' W 122°19'0 0.0
2014-Nov-26 08:31N 37°49' W 122°19'0 0.0
2014-Nov-26 07:31N 37°49' W 122°19'0 0.0
2014-Nov-26 06:31N 37°49' W 122°19'0 0.0
2014-Nov-26 05:31N 37°49' W 122°19'0 0.0
2014-Nov-26 04:31N 37°49' W 122°19'0 0.0
2014-Nov-26 03:31N 37°49' W 122°19'0 0.0
2014-Nov-26 02:31N 37°49' W 122°19'0 0.0
2014-Nov-26 01:31N 37°49' W 122°19'0 0.0
2014-Nov-26 00:31N 37°49' W 122°19'0 0.0
2014-Nov-25 23:28N 37°49' W 122°19'0 0.0
2014-Nov-25 22:31N 37°49' W 122°19'0 0.0
2014-Nov-25 21:31N 37°49' W 122°19'0 0.0
2014-Nov-25 20:31N 37°49' W 122°19'0 0.0
2014-Nov-25 19:31N 37°49' W 122°19'0 0.0
2014-Nov-25 18:31N 37°49' W 122°19'0 0.0
2014-Nov-25 17:31N 37°49' W 122°19'0 0.0
2014-Nov-25 16:33N 37°49' W 122°19'0 0.0
2014-Nov-25 15:30N 37°49' W 122°19'0 0.0
2014-Nov-25 14:31N 37°49' W 122°19'0 0.0
2014-Nov-25 13:31N 37°49' W 122°19'0 0.0
2014-Nov-25 12:31N 37°49' W 122°19'0 0.0
2014-Nov-25 11:31N 37°49' W 122°19'0 0.0
2014-Nov-25 10:31N 37°49' W 122°19'0 0.0
2014-Nov-25 09:31N 37°49' W 122°19'0 0.0
2014-Nov-25 08:33N 37°49' W 122°19'0 0.0
2014-Nov-25 07:31N 37°49' W 122°19'0 0.0
2014-Nov-25 06:33N 37°49' W 122°19'0 0.0
2014-Nov-25 05:33N 37°49' W 122°19'0 0.0
2014-Nov-25 04:30N 37°49' W 122°19'0 0.0
2014-Nov-25 03:31N 37°49' W 122°19'0 0.5
2014-Nov-25 02:33N 37°49' W 122°20'8 8.0
2014-Nov-25 01:33N 37°49' W 122°30'1110.8
2014-Nov-25 00:34N 37°43' W 122°42'1110.8
2014-Nov-24 23:33N 37°37' W 122°53'1414.0
2014-Nov-24 22:33N 37°25' W 123°02'1514.7
2014-Nov-24 21:34N 37°11' W 122°58'2020.1
2014-Nov-24 20:34N 36°52' W 122°50'2221.7
2014-Nov-24 19:34N 36°32' W 122°39'2222.1
2014-Nov-24 18:33N 36°12' W 122°27'2221.7
2014-Nov-24 17:33N 35°54' W 122°12'2221.9
2014-Nov-24 16:33N 35°36' W 121°56'2222.3
2014-Nov-24 15:33N 35°18' W 121°40'2222.2
2014-Nov-24 14:33N 35°00' W 121°24'2222.4
2014-Nov-24 13:33N 34°42' W 121°08'3717.8
2014-Nov-24 11:29N 34°21' W 120°31'1617.4
2014-Nov-24 10:33N 34°17' W 120°12'1817.5
2014-Nov-24 09:33N 34°12' W 119°51'1818.2
2014-Nov-24 08:34N 34°08' W 119°30'1818.0
2014-Nov-24 07:33N 34°02' W 119°10'1313.2
2014-Nov-24 06:33N 33°55' W 118°56'2311.7
2014-Nov-24 04:33N 33°44' W 118°32'1111.4
2014-Nov-24 03:33N 33°38' W 118°20'9 8.6
2014-Nov-24 02:33N 33°43' W 118°11'2 1.6
2014-Nov-24 01:32N 33°45' W 118°12'0 0.0
2014-Nov-24 00:32N 33°45' W 118°12'0 0.0
2014-Nov-23 23:32N 33°45' W 118°12'0 0.0
2014-Nov-23 22:32N 33°45' W 118°12'0 0.0
2014-Nov-23 21:32N 33°45' W 118°12'0 0.1
2014-Nov-23 20:32N 33°45' W 118°12'0 0.0
2014-Nov-23 19:32N 33°45' W 118°12'0 0.0
2014-Nov-23 18:32N 33°45' W 118°12'0 0.0
2014-Nov-23 17:32N 33°45' W 118°12'0 0.0
2014-Nov-23 16:32N 33°45' W 118°12'0 0.0
2014-Nov-23 15:20N 33°45' W 118°12'0 0.0
2014-Nov-23 14:17N 33°45' W 118°12'0 0.0
2014-Nov-23 13:05N 33°45' W 118°12'0 0.0
2014-Nov-23 12:29N 33°45' W 118°12'0 0.0
2014-Nov-23 11:32N 33°45' W 118°12'0 0.0
2014-Nov-23 10:29N 33°45' W 118°12'0 0.1
2014-Nov-23 09:32N 33°45' W 118°12'0 0.0
2014-Nov-23 08:32N 33°45' W 118°12'0 0.1
2014-Nov-23 07:32N 33°45' W 118°12'0 0.0
2014-Nov-23 06:32N 33°45' W 118°12'0 0.0
2014-Nov-23 05:23N 33°45' W 118°12'0 0.1
2014-Nov-23 04:32N 33°45' W 118°12'0 0.1
2014-Nov-23 03:32N 33°45' W 118°12'0 0.1
2014-Nov-23 02:32N 33°45' W 118°12'0 0.0
2014-Nov-23 01:32N 33°45' W 118°12'0 0.1
2014-Nov-23 00:32N 33°45' W 118°12'0 0.1
2014-Nov-22 23:32N 33°45' W 118°12'0 0.0
2014-Nov-22 22:32N 33°45' W 118°12'0 0.0
2014-Nov-22 21:32N 33°45' W 118°12'0 0.0
2014-Nov-22 20:31N 33°45' W 118°12'0 0.0
2014-Nov-22 19:32N 33°45' W 118°12'0 0.0
2014-Nov-22 18:32N 33°45' W 118°12'0 0.0
2014-Nov-22 17:29N 33°45' W 118°12'0 0.1
2014-Nov-22 16:32N 33°45' W 118°12'0 0.0
2014-Nov-22 15:31N 33°45' W 118°12'0 0.0
2014-Nov-22 14:31N 33°45' W 118°12'0 0.0
2014-Nov-22 13:20N 33°45' W 118°12'0 0.0
2014-Nov-22 12:25N 33°45' W 118°12'0 0.0
2014-Nov-22 11:26N 33°45' W 118°12'0 0.1
2014-Nov-22 10:31N 33°45' W 118°12'0 0.0
2014-Nov-22 08:31N 33°45' W 118°12'0 0.0
2014-Nov-22 07:31N 33°45' W 118°12'0 0.0
2014-Nov-22 06:31N 33°45' W 118°12'0 0.0
2014-Nov-22 05:31N 33°45' W 118°12'0 0.1
2014-Nov-22 04:31N 33°45' W 118°12'0 0.1
2014-Nov-22 03:31N 33°45' W 118°12'0 0.0
2014-Nov-22 02:31N 33°45' W 118°12'0 0.0
2014-Nov-22 01:31N 33°45' W 118°12'0 0.0
2014-Nov-22 00:32N 33°45' W 118°12'0 0.1
2014-Nov-21 23:31N 33°45' W 118°12'0 0.1
2014-Nov-21 22:31N 33°45' W 118°12'0 0.0
2014-Nov-21 21:19N 33°45' W 118°12'0 0.0
2014-Nov-21 20:31N 33°45' W 118°12'0 0.0
2014-Nov-21 19:31N 33°45' W 118°12'0 0.0
2014-Nov-21 18:31N 33°45' W 118°12'0 0.0
2014-Nov-21 17:31N 33°45' W 118°12'0 0.0
2014-Nov-21 16:31N 33°45' W 118°12'0 0.0
2014-Nov-21 15:25N 33°45' W 118°12'0 0.0
2014-Nov-21 14:31N 33°45' W 118°12'0 0.1
2014-Nov-21 13:31N 33°45' W 118°12'0 0.1
2014-Nov-21 12:31N 33°45' W 118°12'0 0.0
2014-Nov-21 11:28N 33°45' W 118°12'0 0.0
2014-Nov-21 10:31N 33°45' W 118°12'0 0.0
2014-Nov-21 09:31N 33°45' W 118°12'0 0.0
2014-Nov-21 08:28N 33°45' W 118°12'0 0.0
2014-Nov-21 07:19N 33°45' W 118°12'0 0.0
2014-Nov-21 06:31N 33°45' W 118°12'0 0.1
2014-Nov-21 05:31N 33°45' W 118°12'0 0.0
2014-Nov-21 04:28N 33°45' W 118°12'0 0.1
2014-Nov-21 03:31N 33°45' W 118°12'0 0.0
2014-Nov-21 02:31N 33°45' W 118°12'0 0.0
2014-Nov-21 01:22N 33°45' W 118°12'0 0.0
2014-Nov-21 00:22N 33°45' W 118°12'0 0.0
2014-Nov-20 23:31N 33°45' W 118°12'0 0.0
2014-Nov-20 22:31N 33°45' W 118°12'0 0.1
2014-Nov-20 21:31N 33°45' W 118°12'0 0.0
2014-Nov-20 20:31N 33°45' W 118°12'0 0.0
2014-Nov-20 19:31N 33°45' W 118°12'0 0.0
2014-Nov-20 18:31N 33°45' W 118°12'0 0.0
2014-Nov-20 17:31N 33°45' W 118°12'0 0.0
2014-Nov-20 16:31N 33°45' W 118°12'0 0.0
2014-Nov-20 15:31N 33°45' W 118°12'0 0.0
2014-Nov-20 14:28N 33°45' W 118°12'0 0.0
2014-Nov-20 13:28N 33°45' W 118°12'2 2.3
2014-Nov-20 12:33N 33°43' W 118°11'9 7.7
2014-Nov-20 11:26N 33°36' W 118°18'1010.6
2014-Nov-20 10:31N 33°40' W 118°29'1211.6
2014-Nov-20 09:30N 33°46' W 118°41'1111.7
2014-Nov-20 08:33N 33°51' W 118°52'1211.7
2014-Nov-20 07:33N 33°57' W 119°05'3215.7
2014-Nov-20 05:33N 34°08' W 119°40'1616.6
2014-Nov-20 04:33N 34°12' W 119°59'1716.5
2014-Nov-20 03:33N 34°17' W 120°19'  

Dump ship's entire track history